createdAt,value
2022-10-26T04:36:16.914Z,100.00
2022-10-26T04:39:02.225Z,100.00
2022-10-26T04:41:47.611Z,100.00
2022-10-26T04:44:33.276Z,100.00
2022-10-26T04:47:18.719Z,100.00
2022-10-26T04:50:04.569Z,100.00
2022-10-26T04:52:53.319Z,100.00
2022-10-26T04:55:38.810Z,100.00
2022-10-26T04:58:24.088Z,100.00
2022-10-26T05:01:09.668Z,100.00
2022-10-26T05:03:55.316Z,100.00
2022-10-26T05:06:41.363Z,100.00
2022-10-26T05:09:29.150Z,100.00
2022-10-26T05:12:17.654Z,100.00
2022-10-26T05:15:06.333Z,100.00
2022-10-26T05:17:58.510Z,100.00
2022-10-26T05:20:53.053Z,100.00
2022-10-26T05:23:39.151Z,100.00
2022-10-26T05:26:24.831Z,100.00
2022-10-26T05:29:10.073Z,100.00
2022-10-26T05:31:55.465Z,100.00
2022-10-26T05:34:41.628Z,100.00
2022-10-26T05:37:47.424Z,100.00
2022-10-26T05:40:32.767Z,100.00
2022-10-26T05:43:20.898Z,100.00
2022-10-26T05:46:06.646Z,100.00
2022-10-26T05:48:52.435Z,100.00
2022-10-26T05:51:42.132Z,100.00
2022-10-26T05:54:27.562Z,100.00
2022-10-26T05:57:14.052Z,100.00
2022-10-26T06:00:00.564Z,100.00
2022-10-26T06:03:04.046Z,100.00
2022-10-26T06:05:56.613Z,100.00
2022-10-26T06:08:49.660Z,100.00
2022-10-26T06:11:35.964Z,100.00
2022-10-26T06:14:22.153Z,100.00
2022-10-26T06:17:35.295Z,100.00
2022-10-26T06:20:30.975Z,100.00
2022-10-26T06:23:19.561Z,100.00
2022-10-26T06:26:21.186Z,100.00
2022-10-26T06:29:46.121Z,100.00
2022-10-26T06:32:31.945Z,100.00
2022-10-26T06:35:46.617Z,100.00
2022-10-26T06:38:35.428Z,100.00
2022-10-26T06:41:24.296Z,100.00
2022-10-26T06:44:19.406Z,100.00
2022-10-26T06:47:18.656Z,100.00
2022-10-26T06:50:32.778Z,100.00
2022-10-26T06:53:41.057Z,100.00
2022-10-26T06:56:27.277Z,100.00
2022-10-26T06:59:25.616Z,100.00
2022-10-26T07:02:15.341Z,100.00
2022-10-26T07:05:01.324Z,100.00
2022-10-26T07:07:48.661Z,100.00
2022-10-26T07:10:39.488Z,100.00
2022-10-26T07:13:25.215Z,100.00
2022-10-26T07:16:11.124Z,100.00
2022-10-26T07:18:56.546Z,100.00
2022-10-26T07:21:42.201Z,100.00
2022-10-26T07:24:28.649Z,100.00
2022-10-26T07:27:14.224Z,100.00
2022-10-26T07:29:59.852Z,100.00
2022-10-26T07:32:46.325Z,94.76
2022-10-26T07:35:33.539Z,92.87
2022-10-26T07:38:19.184Z,90.41
2022-10-26T07:41:05.457Z,88.23
2022-10-26T07:43:51.290Z,87.94
2022-10-26T07:46:36.902Z,76.80
2022-10-26T07:49:26.093Z,67.81
2022-10-26T07:52:13.425Z,69.24
2022-10-26T07:54:58.736Z,73.97
2022-10-26T07:57:47.584Z,75.13
2022-10-26T08:00:36.633Z,73.11
2022-10-26T08:03:22.208Z,69.75
2022-10-26T08:06:09.573Z,70.12
2022-10-26T08:08:55.282Z,72.06
2022-10-26T08:11:41.028Z,69.06
2022-10-26T08:14:26.726Z,66.30
2022-10-26T08:17:14.943Z,63.97
2022-10-26T08:20:01.219Z,61.79
2022-10-26T08:22:54.366Z,61.82
2022-10-26T08:25:39.767Z,61.97
2022-10-26T08:28:25.591Z,58.71
2022-10-26T08:31:11.443Z,64.85
2022-10-26T08:33:57.053Z,63.59
2022-10-26T08:36:46.643Z,62.62
2022-10-26T08:39:36.384Z,62.90
2022-10-26T08:42:30.198Z,60.84
2022-10-26T08:45:48.058Z,55.92
2022-10-26T08:48:37.309Z,54.29
2022-10-26T08:51:28.108Z,55.96
2022-10-26T08:54:35.844Z,56.24
2022-10-26T08:57:34.060Z,55.48
2022-10-26T09:00:21.765Z,54.15
2022-10-26T09:03:18.206Z,53.25
2022-10-26T09:06:28.678Z,52.65
2022-10-26T09:09:29.667Z,55.03
2022-10-26T09:12:29.018Z,53.05
2022-10-26T09:15:19.083Z,51.05
2022-10-26T09:18:24.691Z,52.85
2022-10-26T09:21:36.919Z,57.53
2022-10-26T09:24:38.816Z,58.23
2022-10-26T09:27:28.850Z,55.65
2022-10-26T09:30:20.210Z,52.21
2022-10-26T09:33:30.036Z,49.03
2022-10-26T09:40:12.561Z,48.32
2022-10-26T09:43:05.294Z,49.01
2022-10-26T09:45:55.710Z,46.70
2022-10-26T09:48:53.993Z,45.71
2022-10-26T09:51:43.282Z,48.34
2022-10-26T09:54:28.921Z,48.27
2022-10-26T09:57:20.830Z,46.76
2022-10-26T10:00:18.402Z,45.43
2022-10-26T10:03:18.729Z,46.25
2022-10-26T10:06:19.789Z,48.91
2022-10-26T10:09:11.937Z,46.39
2022-10-26T10:12:01.465Z,45.43
2022-10-26T10:14:59.836Z,43.40
2022-10-26T10:17:58.127Z,41.97
2022-10-26T10:20:52.715Z,44.06
2022-10-26T10:23:52.259Z,43.01
2022-10-26T10:27:18.633Z,43.20
2022-10-26T10:30:22.749Z,43.26
2022-10-26T10:33:12.258Z,41.92
2022-10-26T10:35:58.449Z,41.61
2022-10-26T10:38:46.285Z,46.97
2022-10-26T10:41:39.342Z,53.33
2022-10-26T10:44:29.824Z,55.37
2022-10-26T10:47:27.343Z,55.22
2022-10-26T10:50:18.813Z,50.32
2022-10-26T10:53:25.357Z,45.21
2022-10-26T10:56:29.170Z,45.60
2022-10-26T10:59:56.656Z,43.31
2022-10-26T11:03:23.355Z,42.91
2022-10-26T11:06:21.209Z,39.37
2022-10-26T11:09:13.556Z,39.67
2022-10-26T11:12:06.890Z,40.10
2022-10-26T11:14:59.409Z,39.91
2022-10-26T11:18:13.247Z,44.08
2022-10-26T11:21:14.094Z,50.38
2022-10-26T11:24:38.721Z,48.96
2022-10-26T11:27:31.082Z,45.50
2022-10-26T11:30:22.072Z,43.42
2022-10-26T11:33:19.630Z,45.37
2022-10-26T11:36:09.694Z,41.00
2022-10-26T11:39:08.917Z,41.12
2022-10-26T11:42:11.246Z,38.56
2022-10-26T11:45:12.411Z,37.51
2022-10-26T11:48:17.055Z,38.93
2022-10-26T11:51:03.747Z,41.07
2022-10-26T11:53:51.038Z,44.28
2022-10-26T11:56:44.290Z,49.79
2022-10-26T11:59:33.665Z,48.56
2022-10-26T12:02:23.045Z,48.76
2022-10-26T12:05:22.602Z,50.49
2022-10-26T12:08:29.259Z,48.99
2022-10-26T12:11:36.850Z,47.92
2022-10-26T12:14:31.008Z,46.98
2022-10-26T12:17:35.690Z,45.31
2022-10-26T12:20:42.910Z,45.51
2022-10-26T12:23:58.178Z,45.44
2022-10-26T12:26:50.937Z,43.22
2022-10-26T12:29:45.763Z,45.09
2022-10-26T12:32:34.122Z,48.14
2022-10-26T12:35:37.570Z,52.59
2022-10-26T12:38:31.657Z,53.42
2022-10-26T12:41:20.783Z,54.15
2022-10-26T12:44:38.125Z,55.36
2022-10-26T12:47:32.692Z,55.35
2022-10-26T12:50:24.526Z,57.17
2022-10-26T12:53:13.965Z,52.76
2022-10-26T12:56:06.015Z,46.54
2022-10-26T12:59:16.088Z,44.21
2022-10-26T13:02:20.372Z,42.47
2022-10-26T13:05:17.814Z,41.96
2022-10-26T13:08:07.280Z,44.91
2022-10-26T13:11:05.856Z,49.61
2022-10-26T13:13:57.623Z,53.94
2022-10-26T13:16:45.769Z,58.27
2022-10-26T13:19:45.272Z,58.54
2022-10-26T13:22:32.164Z,61.12
2022-10-26T13:25:29.162Z,62.87
2022-10-26T13:28:42.189Z,64.80
2022-10-26T13:31:34.246Z,66.82
2022-10-26T13:34:21.574Z,68.22
2022-10-26T13:37:21.515Z,68.65
2022-10-26T13:40:08.030Z,70.34
2022-10-26T13:42:58.907Z,71.09
2022-10-26T13:45:54.362Z,72.95
2022-10-26T13:48:41.544Z,73.48
2022-10-26T13:51:53.803Z,73.06
2022-10-26T13:54:54.866Z,74.54
2022-10-26T13:57:45.935Z,74.52
2022-10-26T14:00:31.673Z,74.60
2022-10-26T14:03:22.960Z,75.67
2022-10-26T14:06:26.591Z,75.49
2022-10-26T14:09:14.535Z,76.60
2022-10-26T14:12:02.138Z,77.61
2022-10-26T14:14:48.129Z,77.66
2022-10-26T14:17:34.034Z,79.06
2022-10-26T14:20:21.751Z,78.92
2022-10-26T14:23:26.241Z,79.87
2022-10-26T14:26:39.152Z,80.00
2022-10-26T14:29:27.449Z,80.25
2022-10-26T14:32:33.621Z,81.93
2022-10-26T14:35:24.208Z,82.05
2022-10-26T14:38:22.627Z,82.17
